Time;durP1;ratioP1;P1;durP2;ratioP2;P2;SDS_P1;SDS_P2;PMS_P1;PMS_P2;Temp;Humidity;BMP_temperature;BMP_pressure;BME280_temperature;BME280_humidity;BME280_pressure;Samples;Min_cycle;Max_cycle;Signal;HPM_P1;HPM_P2
2024/03/16 00:00:57;;;;;;;4.43;0.75;;;;;;;9.76;78.02;98454.41;5007667;27;103707;-73
2024/03/16 00:03:24;;;;;;;0.75;0.60;;;;;;;9.76;77.45;98459.72;5012733;27;102700;-72
2024/03/16 00:05:50;;;;;;;1.77;0.70;;;;;;;9.73;77.74;98461.84;5011658;27;104450;-73
2024/03/16 00:08:22;;;;;;;1.23;0.80;;;;;;;9.68;77.59;98464.19;5010364;27;103222;-73
2024/03/16 00:10:51;;;;;;;1.42;0.50;;;;;;;9.75;77.66;98467.81;5012325;27;102837;-72
2024/03/16 00:13:18;;;;;;;0.50;0.47;;;;;;;9.74;77.44;98464.34;5001033;27;102581;-73
2024/03/16 00:15:50;;;;;;;2.58;0.73;;;;;;;9.77;77.26;98456.06;4999798;27;103190;-74
2024/03/16 00:18:17;;;;;;;1.75;0.50;;;;;;;9.81;77.29;98453.09;5014953;27;103243;-72
2024/03/16 00:20:44;;;;;;;2.75;0.60;;;;;;;9.89;77.09;98463.63;5009533;28;103841;-72
2024/03/16 00:23:10;;;;;;;0.75;0.40;;;;;;;9.79;76.89;98467.28;5009064;27;102699;-72
2024/03/16 00:25:37;;;;;;;1.10;0.52;;;;;;;9.71;77.31;98464.69;5006004;27;103803;-73
2024/03/16 00:28:04;;;;;;;1.85;0.45;;;;;;;9.69;77.23;98471.13;5011670;27;103453;-72
2024/03/16 00:30:31;;;;;;;2.05;0.50;;;;;;;9.70;76.85;98467.50;5009462;27;102667;-72
2024/03/16 00:33:01;;;;;;;1.35;0.38;;;;;;;9.72;77.00;98476.91;5013746;27;103152;-73
2024/03/16 00:35:28;;;;;;;1.67;0.50;;;;;;;9.75;77.23;98471.28;5001862;27;103187;-71
2024/03/16 00:37:55;;;;;;;3.00;0.60;;;;;;;9.64;78.02;98463.69;4994158;27;102807;-73
2024/03/16 00:40:22;;;;;;;0.38;0.30;;;;;;;9.81;77.31;98456.53;5001188;28;102770;-72
2024/03/16 00:42:49;;;;;;;0.90;0.30;;;;;;;9.70;77.06;98455.09;5011720;27;102749;-73
2024/03/16 00:45:15;;;;;;;1.65;0.50;;;;;;;9.61;77.54;98448.16;5011110;27;103973;-73
2024/03/16 00:47:43;;;;;;;1.15;0.60;;;;;;;9.63;77.29;98446.19;4993996;27;103573;-72
2024/03/16 00:50:09;;;;;;;1.65;0.65;;;;;;;9.63;77.17;98449.66;5007989;27;103282;-73
2024/03/16 00:52:36;;;;;;;0.75;0.40;;;;;;;9.50;77.54;98448.50;5008276;27;103313;-73
2024/03/16 00:55:03;;;;;;;0.95;0.30;;;;;;;9.51;77.79;98452.81;5026052;27;103228;-72
2024/03/16 00:57:33;;;;;;;0.30;0.30;;;;;;;9.59;77.17;98461.56;5008283;27;103186;-72
2024/03/16 00:59:59;;;;;;;2.08;0.50;;;;;;;9.56;76.82;98461.06;5009602;27;103075;-73
2024/03/16 01:02:31;;;;;;;0.95;0.30;;;;;;;9.42;76.88;98466.03;5006417;27;102763;-71
2024/03/16 01:04:57;;;;;;;1.08;0.45;;;;;;;9.40;77.02;98467.19;4993482;28;103485;-73
2024/03/16 01:07:24;;;;;;;0.60;0.43;;;;;;;9.42;77.34;98463.41;4994321;27;103184;-72
2024/03/16 01:09:54;;;;;;;2.28;0.40;;;;;;;9.24;77.42;98460.09;5006988;27;102696;-71
2024/03/16 01:12:21;;;;;;;1.70;0.57;;;;;;;9.33;77.58;98482.91;4998758;27;102960;-72
2024/03/16 01:14:50;;;;;;;2.45;0.40;;;;;;;9.17;77.13;98486.38;4989405;28;110226;-72
2024/03/16 01:17:20;;;;;;;1.58;0.50;;;;;;;9.29;76.96;98471.00;5006786;27;103638;-72
2024/03/16 01:19:49;;;;;;;1.02;0.20;;;;;;;9.36;76.86;98466.69;5009690;27;103080;-72
2024/03/16 01:22:16;;;;;;;0.52;0.40;;;;;;;9.24;76.26;98462.75;5009333;27;102734;-73
2024/03/16 01:24:43;;;;;;;0.93;0.40;;;;;;;9.30;76.70;98451.50;5004460;27;103441;-72
2024/03/16 01:27:11;;;;;;;0.20;0.20;;;;;;;9.31;76.42;98447.88;4990694;28;106010;-72
2024/03/16 01:29:38;;;;;;;0.68;0.50;;;;;;;9.44;76.31;98442.88;4990808;28;102856;-72
2024/03/16 01:32:08;;;;;;;1.63;0.30;;;;;;;9.36;76.42;98444.75;5008163;28;103153;-72
2024/03/16 01:34:37;;;;;;;0.68;0.40;;;;;;;9.39;76.16;98445.25;5003446;27;105414;-72
2024/03/16 01:37:04;;;;;;;1.20;0.40;;;;;;;9.37;76.00;98439.28;5007480;28;103555;-73
2024/03/16 01:39:31;;;;;;;2.00;0.52;;;;;;;9.36;75.87;98445.53;5007496;27;103334;-72
2024/03/16 01:41:58;;;;;;;1.38;0.40;;;;;;;9.36;76.42;98450.84;5009748;27;103945;-72
2024/03/16 01:44:25;;;;;;;4.85;0.50;;;;;;;9.39;76.07;98445.25;5008062;27;104178;-73
2024/03/16 01:46:51;;;;;;;1.85;0.57;;;;;;;9.37;76.04;98452.50;4992221;28;105649;-73
2024/03/16 01:49:18;;;;;;;0.85;0.30;;;;;;;9.36;75.98;98456.13;5006752;27;102798;-72
2024/03/16 01:51:45;;;;;;;2.08;0.47;;;;;;;9.22;76.16;98449.69;5007859;27;102816;-72
2024/03/16 01:54:12;;;;;;;4.07;0.60;;;;;;;9.32;75.69;98457.44;5011954;27;103416;-72
2024/03/16 01:56:41;;;;;;;1.38;0.45;;;;;;;9.27;76.16;98457.13;5007951;27;104524;-73
2024/03/16 01:59:08;;;;;;;1.85;0.50;;;;;;;9.40;76.06;98460.06;5010262;27;102842;-73
2024/03/16 02:01:35;;;;;;;1.40;0.40;;;;;;;9.32;76.37;98464.56;5007275;28;102683;-72
2024/03/16 02:04:03;;;;;;;2.05;0.70;;;;;;;9.30;76.31;98456.78;5009365;27;103123;-72
2024/03/16 02:06:30;;;;;;;0.98;0.47;;;;;;;9.34;76.57;98455.47;5013057;27;103363;-72
2024/03/16 02:09:00;;;;;;;1.58;0.40;;;;;;;9.40;75.93;98453.97;5009080;28;103319;-73
2024/03/16 02:11:26;;;;;;;2.58;0.60;;;;;;;9.44;76.12;98453.47;5012784;27;102834;-73
2024/03/16 02:13:56;;;;;;;3.47;0.40;;;;;;;9.28;76.65;98454.31;5014716;27;103494;-73
2024/03/16 02:16:25;;;;;;;2.53;0.43;;;;;;;9.41;76.22;98456.44;5015873;27;103274;-74
2024/03/16 02:18:51;;;;;;;1.10;0.40;;;;;;;9.33;76.46;98459.09;5031519;27;102655;-73
2024/03/16 02:21:20;;;;;;;0.70;0.57;;;;;;;9.30;76.58;98451.50;5018192;27;102682;-74
2024/03/16 02:23:48;;;;;;;4.60;0.85;;;;;;;9.27;76.48;98449.19;5016562;27;103300;-73
2024/03/16 02:26:14;;;;;;;1.60;0.47;;;;;;;9.28;76.29;98448.22;5009945;27;103176;-73
2024/03/16 02:28:41;;;;;;;3.92;0.45;;;;;;;9.28;76.61;98453.50;5010976;28;102689;-74
2024/03/16 02:31:10;;;;;;;1.85;0.40;;;;;;;9.35;76.27;98457.09;5013995;27;102745;-73
2024/03/16 02:33:37;;;;;;;1.17;0.55;;;;;;;9.39;76.39;98455.81;5022479;27;105770;-73
2024/03/16 02:36:06;;;;;;;1.42;0.50;;;;;;;9.39;76.20;98461.09;5012626;27;103090;-73
2024/03/16 02:38:34;;;;;;;1.30;0.40;;;;;;;9.16;76.63;98453.00;5012765;27;102786;-73
2024/03/16 02:41:02;;;;;;;0.98;0.45;;;;;;;9.22;76.66;98444.41;5012632;27;102744;-73
2024/03/16 02:43:31;;;;;;;3.92;0.50;;;;;;;9.25;76.79;98448.53;5012648;27;103157;-73
2024/03/16 02:45:58;;;;;;;3.55;0.60;;;;;;;9.25;76.65;98452.00;5026980;27;103371;-73
2024/03/16 02:48:25;;;;;;;1.95;0.40;;;;;;;9.30;76.35;98451.50;5013479;27;103637;-73
2024/03/16 02:50:52;;;;;;;1.65;0.40;;;;;;;9.31;76.62;98442.56;5010916;27;102648;-73
2024/03/16 02:53:18;;;;;;;0.52;0.30;;;;;;;9.11;77.23;98437.63;5010210;27;103618;-73
2024/03/16 02:55:48;;;;;;;2.55;0.40;;;;;;;9.10;77.37;98437.81;5008934;27;106361;-73
2024/03/16 02:58:19;;;;;;;1.38;0.50;;;;;;;9.17;77.43;98437.97;5011949;27;102710;-73
2024/03/16 03:00:47;;;;;;;1.98;0.47;;;;;;;9.20;76.91;98437.66;5010693;27;102754;-73
2024/03/16 03:03:14;;;;;;;2.33;0.40;;;;;;;9.24;76.87;98444.25;5009022;27;102939;-73
2024/03/16 03:05:40;;;;;;;1.08;0.50;;;;;;;9.27;76.84;98441.25;5004031;27;103851;-73
2024/03/16 03:08:07;;;;;;;2.60;0.60;;;;;;;9.20;77.02;98433.19;4996652;28;103055;-73
2024/03/16 03:10:36;;;;;;;1.50;0.50;;;;;;;9.35;76.31;98430.69;4997406;28;102620;-73
2024/03/16 03:13:03;;;;;;;1.90;0.40;;;;;;;9.23;76.54;98434.66;4999038;27;104498;-73
2024/03/16 03:15:30;;;;;;;2.08;0.50;;;;;;;9.29;76.76;98439.28;5008975;27;103291;-73
2024/03/16 03:17:56;;;;;;;1.38;0.50;;;;;;;9.28;76.83;98443.72;5013095;27;102803;-73
2024/03/16 03:20:26;;;;;;;2.60;0.63;;;;;;;9.24;76.91;98446.88;5011427;27;102843;-73
2024/03/16 03:22:52;;;;;;;0.32;0.25;;;;;;;9.23;76.83;98447.88;5008827;27;103398;-72
2024/03/16 03:25:21;;;;;;;1.02;0.40;;;;;;;9.25;76.94;98454.66;5016182;27;105727;-73
2024/03/16 03:27:48;;;;;;;0.50;0.40;;;;;;;9.32;77.27;98456.63;5008167;28;102671;-73
2024/03/16 03:30:15;;;;;;;1.02;0.50;;;;;;;9.27;77.26;98452.69;5012534;27;102665;-72
2024/03/16 03:32:42;;;;;;;1.42;0.50;;;;;;;9.34;77.48;98458.13;5005478;27;106401;-72
2024/03/16 03:35:13;;;;;;;2.25;0.50;;;;;;;9.19;77.33;98459.78;5008708;28;105378;-73
2024/03/16 03:37:43;;;;;;;0.95;0.47;;;;;;;9.29;77.83;98463.06;5009101;27;102964;-73
2024/03/16 03:40:10;;;;;;;1.88;0.52;;;;;;;9.31;78.06;98473.47;5011875;27;102996;-72
2024/03/16 03:42:39;;;;;;;4.50;0.70;;;;;;;9.26;77.85;98476.59;5013118;27;103790;-73
2024/03/16 03:45:24;;;;;;;0.60;0.32;;;;;;;9.28;77.87;98485.22;5007285;28;103635;-73
2024/03/16 03:48:04;;;;;;;0.93;0.35;;;;;;;9.31;78.10;98487.50;5011861;27;102729;-73
2024/03/16 03:50:32;;;;;;;1.38;0.38;;;;;;;9.48;77.75;98487.50;5013002;27;102713;-73
2024/03/16 03:53:02;;;;;;;5.57;1.05;;;;;;;9.39;78.14;98499.91;5009191;28;102814;-73
2024/03/16 03:55:29;;;;;;;3.85;0.50;;;;;;;9.26;79.25;98503.03;5008799;27;105246;-73
2024/03/16 03:57:56;;;;;;;3.35;0.45;;;;;;;9.17;80.27;98502.22;5009641;28;102814;-73
2024/03/16 04:00:23;;;;;;;7.53;0.75;;;;;;;8.95;81.55;98504.50;5008865;27;102817;-72
2024/03/16 04:02:50;;;;;;;2.47;0.50;;;;;;;9.06;81.11;98505.97;5009033;27;105280;-73
2024/03/16 04:05:16;;;;;;;1.80;0.70;;;;;;;9.12;80.73;98507.16;5008520;28;104660;-73
2024/03/16 04:07:45;;;;;;;1.58;0.60;;;;;;;9.12;80.10;98502.69;5011649;27;104391;-74
2024/03/16 04:10:12;;;;;;;5.30;0.75;;;;;;;9.21;80.17;98500.06;5011097;27;103168;-73
2024/03/16 04:12:39;;;;;;;1.42;0.60;;;;;;;9.26;79.82;98509.16;5008789;27;103866;-73
2024/03/16 04:15:06;;;;;;;3.50;0.70;;;;;;;9.28;79.70;98511.63;5011365;28;103515;-73
2024/03/16 04:17:35;;;;;;;2.00;0.70;;;;;;;9.31;80.13;98511.28;5008272;27;102968;-73
2024/03/16 04:20:06;;;;;;;1.25;0.60;;;;;;;9.26;79.90;98518.88;5029313;27;102969;-73
2024/03/16 04:22:35;;;;;;;0.88;0.45;;;;;;;9.38;79.67;98530.81;5025253;27;103908;-73
2024/03/16 04:25:03;;;;;;;1.95;0.50;;;;;;;9.29;80.15;98515.94;5014863;27;103476;-73
2024/03/16 04:27:30;;;;;;;2.08;0.70;;;;;;;9.19;80.35;98528.47;5023799;27;102762;-73
2024/03/16 04:29:59;;;;;;;2.80;0.50;;;;;;;9.27;80.49;98533.75;5010637;27;102620;-73
2024/03/16 04:32:29;;;;;;;2.25;0.50;;;;;;;9.25;80.10;98539.22;5009907;27;103173;-73
2024/03/16 04:34:59;;;;;;;3.05;0.70;;;;;;;9.25;80.09;98530.47;5008251;27;103117;-72
2024/03/16 04:37:26;;;;;;;1.02;0.52;;;;;;;9.28;80.35;98540.69;5009354;27;102714;-73
2024/03/16 04:39:53;;;;;;;2.97;0.60;;;;;;;9.08;80.61;98541.00;4995671;28;102714;-73
2024/03/16 04:42:19;;;;;;;1.35;0.55;;;;;;;9.31;80.05;98532.44;5010916;27;105267;-74
2024/03/16 04:44:46;;;;;;;1.52;0.65;;;;;;;9.13;80.65;98529.94;5011198;27;103568;-73
2024/03/16 04:47:13;;;;;;;1.05;0.60;;;;;;;9.25;80.46;98523.34;5006101;27;102808;-74
2024/03/16 04:49:42;;;;;;;1.83;0.60;;;;;;;9.39;80.08;98524.53;5016176;27;102790;-74
2024/03/16 04:52:10;;;;;;;3.28;0.60;;;;;;;9.40;80.01;98523.53;5013050;27;103213;-74
2024/03/16 04:54:36;;;;;;;2.40;0.80;;;;;;;9.38;79.76;98524.66;5012725;27;106125;-74
2024/03/16 04:57:03;;;;;;;2.47;1.17;;;;;;;9.30;80.04;98514.91;5013695;27;102618;-73
2024/03/16 04:59:32;;;;;;;1.00;0.50;;;;;;;9.18;80.88;98521.53;5019047;27;102715;-72
2024/03/16 05:01:59;;;;;;;2.58;0.65;;;;;;;9.28;80.50;98519.56;5011877;28;106470;-72
2024/03/16 05:04:26;;;;;;;3.33;0.90;;;;;;;9.31;79.99;98519.22;5009062;27;105696;-72
2024/03/16 05:06:53;;;;;;;1.65;0.60;;;;;;;9.33;80.18;98522.53;5012162;27;102923;-72
2024/03/16 05:09:20;;;;;;;2.22;0.70;;;;;;;9.31;79.82;98518.41;5016348;27;102657;-72
2024/03/16 05:11:46;;;;;;;4.50;0.82;;;;;;;9.32;79.99;98522.72;5013461;27;103117;-72
2024/03/16 05:14:15;;;;;;;2.20;0.68;;;;;;;9.25;80.31;98517.25;5005276;27;103197;-73
2024/03/16 05:16:42;;;;;;;3.78;0.60;;;;;;;9.26;79.87;98524.16;5001088;27;102848;-72
2024/03/16 05:19:09;;;;;;;1.30;0.60;;;;;;;9.24;79.85;98526.16;4994903;28;102714;-71
2024/03/16 05:21:35;;;;;;;2.10;0.50;;;;;;;9.18;79.95;98532.09;4996444;27;103366;-72
2024/03/16 05:24:02;;;;;;;0.77;0.40;;;;;;;9.22;79.56;98528.13;4991676;27;103372;-72
2024/03/16 05:26:31;;;;;;;2.20;0.75;;;;;;;9.25;79.42;98531.28;4991106;28;102803;-71
2024/03/16 05:28:58;;;;;;;3.72;0.60;;;;;;;9.11;79.79;98535.38;5006924;27;102700;-71
2024/03/16 05:31:25;;;;;;;3.50;0.50;;;;;;;9.03;80.65;98537.22;5008159;27;105307;-71
2024/03/16 05:33:54;;;;;;;4.03;1.02;;;;;;;9.07;80.53;98536.69;5028162;27;103515;-72
2024/03/16 05:36:21;;;;;;;1.42;0.55;;;;;;;9.08;79.69;98546.28;5023410;27;103849;-72
2024/03/16 05:38:48;;;;;;;3.63;0.57;;;;;;;9.06;80.36;98542.16;5006907;27;102873;-72
2024/03/16 05:41:15;;;;;;;1.30;0.38;;;;;;;9.08;79.81;98548.13;5011832;27;107231;-72
2024/03/16 05:43:44;;;;;;;0.95;0.35;;;;;;;9.04;79.94;98552.03;5009016;27;103280;-72
2024/03/16 05:46:11;;;;;;;1.02;0.40;;;;;;;8.99;80.34;98560.47;5010912;27;102879;-75
2024/03/16 05:48:38;;;;;;;2.85;0.38;;;;;;;9.03;80.24;98550.41;5011911;28;102704;-75
2024/03/16 05:51:05;;;;;;;1.98;0.47;;;;;;;9.01;79.88;98555.84;5012370;27;103520;-75
2024/03/16 05:53:34;;;;;;;2.40;0.70;;;;;;;9.05;79.66;98554.56;5006207;28;103258;-76
2024/03/16 05:56:05;;;;;;;2.42;1.10;;;;;;;9.14;80.08;98563.31;4996818;28;103974;-77
2024/03/16 05:58:32;;;;;;;5.95;0.68;;;;;;;9.18;79.57;98571.72;5008525;28;103433;-76
2024/03/16 06:01:02;;;;;;;1.98;0.63;;;;;;;9.24;79.68;98557.88;5022519;27;105401;-76
2024/03/16 06:03:30;;;;;;;1.40;0.50;;;;;;;9.28;79.98;98569.78;5008412;27;103287;-76
2024/03/16 06:05:59;;;;;;;1.80;0.60;;;;;;;9.26;79.92;98574.38;5007620;27;103306;-77
2024/03/16 06:08:26;;;;;;;2.33;1.30;;;;;;;9.22;80.15;98578.34;4998239;28;102859;-75
2024/03/16 06:10:53;;;;;;;1.25;0.80;;;;;;;9.29;80.11;98587.28;4999303;28;103629;-76
2024/03/16 06:13:25;;;;;;;1.65;0.70;;;;;;;9.30;79.98;98583.63;4977989;28;106949;-77
2024/03/16 06:15:51;;;;;;;1.63;0.60;;;;;;;9.33;79.86;98583.34;5006344;27;103729;-75
2024/03/16 06:18:18;;;;;;;3.22;0.65;;;;;;;9.34;80.35;98587.63;5009620;27;102631;-76
2024/03/16 06:20:45;;;;;;;0.73;0.55;;;;;;;9.31;80.04;98595.88;4996189;27;104105;-72
2024/03/16 06:23:14;;;;;;;1.33;0.40;;;;;;;9.33;80.27;98588.63;4998362;28;103244;-73
2024/03/16 06:25:53;;;;;;;2.85;0.73;;;;;;;9.39;80.47;98598.53;5017385;27;103419;-73
2024/03/16 06:28:21;;;;;;;1.70;0.60;;;;;;;9.40;80.59;98602.00;5007837;27;102771;-73
2024/03/16 06:30:49;;;;;;;3.13;0.88;;;;;;;9.45;79.90;98602.34;4992868;27;108058;-73
2024/03/16 06:33:27;;;;;;;1.58;0.50;;;;;;;9.53;80.24;98605.00;5001534;28;103417;-73
2024/03/16 06:35:54;;;;;;;2.28;0.65;;;;;;;9.59;79.74;98606.97;4996379;28;104110;-73
2024/03/16 06:38:23;;;;;;;1.38;0.55;;;;;;;9.63;79.47;98610.94;5005125;27;106730;-73
2024/03/16 06:40:50;;;;;;;2.22;0.50;;;;;;;9.65;79.20;98602.84;4984431;28;110187;-74
2024/03/16 06:43:17;;;;;;;2.13;0.50;;;;;;;9.64;78.71;98617.06;5011106;28;103763;-73
2024/03/16 06:45:44;;;;;;;0.57;0.40;;;;;;;9.69;78.98;98612.09;4995020;27;102629;-73
2024/03/16 06:48:10;;;;;;;3.38;0.57;;;;;;;9.72;78.56;98625.03;4997153;28;103011;-73
2024/03/16 06:50:37;;;;;;;2.17;0.50;;;;;;;9.90;78.05;98626.66;5000083;27;102917;-75
2024/03/16 06:53:06;;;;;;;2.20;0.70;;;;;;;9.97;77.67;98622.38;5005061;27;103214;-74
2024/03/16 06:55:35;;;;;;;5.05;0.95;;;;;;;9.89;77.57;98630.28;4991543;27;102791;-75
2024/03/16 06:58:04;;;;;;;4.78;0.70;;;;;;;9.95;77.98;98629.63;5001067;27;103235;-75
2024/03/16 07:00:31;;;;;;;2.97;0.93;;;;;;;9.94;77.81;98627.97;5002803;27;103273;-74
2024/03/16 07:02:58;;;;;;;1.75;0.77;;;;;;;9.96;78.20;98644.53;5004118;27;103702;-74
2024/03/16 07:05:28;;;;;;;3.50;0.85;;;;;;;9.84;78.26;98645.84;4999226;27;102753;-75
2024/03/16 07:07:54;;;;;;;3.85;0.63;;;;;;;9.85;78.59;98650.13;5018613;27;103958;-74
2024/03/16 07:10:21;;;;;;;1.48;0.50;;;;;;;9.93;78.63;98647.50;5006838;27;102977;-78
2024/03/16 07:12:48;;;;;;;3.53;0.80;;;;;;;9.78;79.07;98652.63;4982982;28;109654;-79
2024/03/16 07:15:18;;;;;;;2.05;0.60;;;;;;;9.89;79.18;98654.94;4989333;28;102887;-77
2024/03/16 07:17:47;;;;;;;2.05;0.55;;;;;;;10.00;79.06;98669.66;4999968;27;102888;-73
2024/03/16 07:20:14;;;;;;;2.17;0.60;;;;;;;10.04;78.77;98676.28;4999963;28;105715;-76
2024/03/16 07:22:41;;;;;;;3.47;0.60;;;;;;;10.01;78.59;98676.63;5002284;27;103157;-76
2024/03/16 07:25:08;;;;;;;3.70;0.85;;;;;;;10.02;79.18;98677.44;4993298;28;103786;-75
2024/03/16 07:27:35;;;;;;;2.17;0.50;;;;;;;10.01;79.17;98686.34;5002697;27;102963;-73
2024/03/16 07:30:04;;;;;;;3.97;0.80;;;;;;;9.98;79.39;98686.69;5009198;27;104650;-73
2024/03/16 07:32:32;;;;;;;2.45;0.65;;;;;;;9.94;79.30;98688.84;4988475;27;103337;-74
2024/03/16 07:35:06;;;;;;;3.13;0.52;;;;;;;10.18;79.13;98687.19;4996116;28;103223;-70
2024/03/16 07:37:35;;;;;;;1.75;0.65;;;;;;;10.10;79.01;98693.28;5003128;27;102778;-72
2024/03/16 07:40:10;;;;;;;4.18;0.82;;;;;;;10.05;79.45;98698.28;4998047;27;103626;-71
2024/03/16 07:42:41;;;;;;;4.78;0.70;;;;;;;10.01;79.90;98700.44;5020926;27;103700;-70
2024/03/16 07:45:11;;;;;;;1.85;0.40;;;;;;;9.75;80.50;98697.91;5006868;27;102762;-71
2024/03/16 07:47:39;;;;;;;2.25;0.60;;;;;;;9.69;81.53;98696.72;5006357;27;103194;-71
2024/03/16 07:50:09;;;;;;;4.90;1.02;;;;;;;9.79;81.55;98700.06;5006632;28;105402;-69
2024/03/16 07:52:35;;;;;;;3.30;0.60;;;;;;;10.00;81.14;98704.06;5007794;27;102672;-70
2024/03/16 07:55:06;;;;;;;2.97;0.77;;;;;;;9.99;81.12;98705.03;5007277;27;103203;-70
2024/03/16 07:57:34;;;;;;;2.47;0.50;;;;;;;10.05;80.87;98709.69;5006165;27;103424;-71
2024/03/16 08:00:00;;;;;;;3.95;0.77;;;;;;;10.10;81.14;98707.38;5002778;28;104330;-70
2024/03/16 08:02:40;;;;;;;1.92;0.50;;;;;;;10.25;80.43;98709.38;5005667;27;102713;-70
2024/03/16 08:05:12;;;;;;;3.58;0.90;;;;;;;10.43;79.97;98707.41;5016707;27;102746;-69
2024/03/16 08:07:41;;;;;;;2.08;0.80;;;;;;;10.56;79.83;98714.03;5005582;27;102824;-71
2024/03/16 08:10:14;;;;;;;2.72;0.73;;;;;;;10.47;79.94;98717.63;5007507;27;103323;-70
2024/03/16 08:12:41;;;;;;;1.75;0.70;;;;;;;10.62;79.35;98715.97;5002425;27;103231;-70
2024/03/16 08:15:08;;;;;;;3.65;0.57;;;;;;;10.64;79.29;98721.09;5009423;27;102694;-71
2024/03/16 08:17:34;;;;;;;1.85;0.60;;;;;;;10.56;79.25;98732.56;4991606;27;103144;-70
2024/03/16 08:20:02;;;;;;;1.88;0.63;;;;;;;10.68;79.13;98731.19;5008208;27;103495;-70
2024/03/16 08:22:29;;;;;;;3.13;0.80;;;;;;;10.90;78.48;98739.44;5008640;27;103386;-72
2024/03/16 08:24:56;;;;;;;5.22;0.73;;;;;;;11.01;78.41;98738.25;5005908;27;102770;-70
2024/03/16 08:27:24;;;;;;;1.70;0.50;;;;;;;11.27;77.97;98738.81;5007324;27;102727;-69
2024/03/16 08:29:55;;;;;;;2.72;0.60;;;;;;;11.31;77.24;98738.50;5010769;27;102646;-72
2024/03/16 08:32:23;;;;;;;4.20;0.95;;;;;;;11.33;77.15;98737.34;5022085;27;104523;-72
2024/03/16 08:34:50;;;;;;;4.88;1.00;;;;;;;11.32;76.60;98743.63;4999569;27;102875;-71
2024/03/16 08:37:17;;;;;;;1.75;0.60;;;;;;;11.47;76.65;98734.94;5010241;27;102719;-71
2024/03/16 08:39:43;;;;;;;4.45;0.88;;;;;;;11.24;76.49;98733.03;5008242;27;103127;-72
2024/03/16 08:42:12;;;;;;;2.80;0.60;;;;;;;11.37;76.26;98738.63;5000994;28;103579;-71
2024/03/16 08:44:39;;;;;;;3.63;0.98;;;;;;;11.39;76.31;98738.47;5009544;27;102839;-71
2024/03/16 08:47:06;;;;;;;3.30;0.70;;;;;;;11.27;75.01;98756.56;5006635;27;102756;-71
2024/03/16 08:49:34;;;;;;;2.25;0.70;;;;;;;11.44;74.80;98758.16;5003182;27;103271;-70
2024/03/16 08:52:00;;;;;;;2.05;0.60;;;;;;;11.56;75.76;98763.91;5004116;27;105737;-70
2024/03/16 08:54:29;;;;;;;2.20;0.80;;;;;;;11.63;75.11;98753.41;5006957;27;103074;-78
2024/03/16 08:56:56;;;;;;;2.88;0.65;;;;;;;11.60;74.93;98761.72;5005757;27;104415;-74
2024/03/16 08:59:23;;;;;;;3.05;0.73;;;;;;;11.66;74.43;98766.34;5007610;27;105712;-72
2024/03/16 09:01:49;;;;;;;1.45;0.60;;;;;;;11.87;73.99;98778.16;4989127;27;106766;-73
2024/03/16 09:04:16;;;;;;;3.22;0.63;;;;;;;11.66;75.08;98776.97;5007013;28;103080;-74
2024/03/16 09:06:44;;;;;;;4.00;0.95;;;;;;;11.64;74.04;98767.53;5006376;27;104052;-75
2024/03/16 09:09:11;;;;;;;2.60;0.75;;;;;;;11.81;74.39;98774.41;4993059;28;103756;-72
2024/03/16 09:11:38;;;;;;;2.88;0.88;;;;;;;12.13;73.10;98780.56;4991694;28;103848;-71
2024/03/16 09:14:05;;;;;;;2.88;0.70;;;;;;;12.13;73.09;98779.72;4990923;28;103072;-71
2024/03/16 09:16:40;;;;;;;3.95;0.73;;;;;;;12.24;73.19;98779.31;5003256;27;102724;-72
2024/03/16 09:19:07;;;;;;;5.45;0.90;;;;;;;12.29;72.97;98782.25;5005630;27;103102;-71
2024/03/16 09:21:34;;;;;;;2.78;0.80;;;;;;;12.27;71.46;98779.78;4999365;27;105564;-70
2024/03/16 09:24:01;;;;;;;1.38;0.40;;;;;;;12.87;69.00;98776.47;5006496;27;102640;-72
2024/03/16 09:26:27;;;;;;;3.47;0.65;;;;;;;13.20;66.81;98781.44;4999514;27;102794;-70
2024/03/16 09:28:54;;;;;;;3.55;0.63;;;;;;;12.92;67.86;98776.75;4999294;28;106047;-72
2024/03/16 09:31:24;;;;;;;2.35;0.75;;;;;;;12.82;68.69;98784.16;5001076;27;103322;-72
2024/03/16 09:33:51;;;;;;;2.58;0.63;;;;;;;12.71;66.17;98790.75;4999912;27;102766;-71
2024/03/16 09:36:18;;;;;;;3.35;0.95;;;;;;;12.59;67.73;98793.00;5009659;27;102646;-71
2024/03/16 09:38:45;;;;;;;2.58;0.60;;;;;;;12.97;68.17;98795.66;5006393;27;104631;-71
2024/03/16 09:41:18;;;;;;;2.05;0.63;;;;;;;13.10;65.84;98795.84;5001110;27;103348;-70
2024/03/16 09:43:46;;;;;;;3.65;0.80;;;;;;;13.01;66.86;98799.59;5001216;27;103858;-70
2024/03/16 09:46:14;;;;;;;1.10;0.50;;;;;;;13.27;64.33;98801.81;5000654;28;102709;-70
2024/03/16 09:48:43;;;;;;;3.10;0.60;;;;;;;13.75;64.86;98798.78;4988171;27;103962;-70
2024/03/16 09:51:15;;;;;;;3.80;0.50;;;;;;;13.45;65.22;98802.47;4980648;28;103512;-70
2024/03/16 09:53:44;;;;;;;2.78;0.70;;;;;;;12.99;65.97;98804.25;4994804;27;102873;-70
2024/03/16 09:56:17;;;;;;;1.73;0.63;;;;;;;12.98;65.04;98805.25;5002180;28;103136;-69
2024/03/16 09:58:43;;;;;;;1.38;0.43;;;;;;;12.92;64.93;98813.97;4983535;27;104375;-69
2024/03/16 10:01:09;;;;;;;2.60;1.02;;;;;;;12.83;65.96;98815.06;5001777;28;105199;-69
2024/03/16 10:03:35;;;;;;;1.40;0.50;;;;;;;12.52;65.74;98814.13;4998922;27;103171;-69
2024/03/16 10:06:08;;;;;;;1.42;0.52;;;;;;;12.62;66.31;98821.84;5000768;28;103193;-70
2024/03/16 10:08:38;;;;;;;1.38;0.40;;;;;;;12.54;66.42;98816.63;5001350;27;103261;-69
2024/03/16 10:11:13;;;;;;;0.93;0.30;;;;;;;12.66;66.61;98817.84;5000164;28;104738;-71
2024/03/16 10:13:59;;;;;;;1.85;0.60;;;;;;;12.74;65.56;98812.44;4987813;27;102845;-70
2024/03/16 10:16:27;;;;;;;2.58;0.60;;;;;;;12.80;65.73;98818.06;4982107;28;103233;-70
2024/03/16 10:18:56;;;;;;;2.95;0.38;;;;;;;12.66;65.47;98817.84;4997596;28;103414;-69
2024/03/16 10:21:27;;;;;;;2.45;0.52;;;;;;;12.92;65.04;98819.28;4990376;28;103354;-70
2024/03/16 10:23:53;;;;;;;1.02;0.45;;;;;;;13.33;65.37;98832.16;4997462;27;104499;-70
2024/03/16 10:26:19;;;;;;;2.80;0.30;;;;;;;13.82;64.55;98827.31;4989949;27;103152;-70
2024/03/16 10:28:46;;;;;;;5.15;0.40;;;;;;;14.00;63.02;98827.72;4996693;28;104669;-70
2024/03/16 10:31:12;;;;;;;1.63;0.50;;;;;;;13.95;63.73;98830.13;4989415;27;103274;-70
2024/03/16 10:33:38;;;;;;;0.65;0.40;;;;;;;13.87;64.80;98828.44;4988546;27;103178;-70
2024/03/16 10:36:15;;;;;;;2.28;0.50;;;;;;;14.20;63.80;98820.00;4998018;28;102837;-70
2024/03/16 10:38:43;;;;;;;0.70;0.30;;;;;;;13.87;64.45;98832.91;5001927;27;103287;-70
2024/03/16 10:41:11;;;;;;;1.40;0.40;;;;;;;13.63;63.36;98834.88;4992584;27;103196;-70
2024/03/16 10:43:38;;;;;;;1.58;0.50;;;;;;;14.40;62.13;98838.84;4990759;28;102856;-70
2024/03/16 10:46:09;;;;;;;2.25;0.50;;;;;;;14.51;63.10;98845.50;5013216;28;102732;-70
2024/03/16 10:48:36;;;;;;;1.23;0.50;;;;;;;14.38;61.40;98848.88;4981397;27;105429;-71
2024/03/16 10:51:07;;;;;;;2.35;0.40;;;;;;;14.20;62.38;98849.28;4996149;28;103377;-71
2024/03/16 10:53:35;;;;;;;1.20;0.30;;;;;;;14.25;62.07;98857.53;5005641;28;102893;-70
2024/03/16 10:56:05;;;;;;;3.08;0.98;;;;;;;14.37;61.74;98855.22;5005477;28;102819;-70
2024/03/16 10:58:31;;;;;;;1.95;0.50;;;;;;;14.02;62.76;98852.34;4986436;27;103348;-72
2024/03/16 11:01:03;;;;;;;2.22;0.40;;;;;;;13.66;63.57;98858.44;4995661;28;107124;-73
2024/03/16 11:03:31;;;;;;;1.85;0.50;;;;;;;13.42;62.91;98857.69;4991343;27;102699;-82
2024/03/16 11:06:09;;;;;;;1.80;0.32;;;;;;;13.57;63.35;98846.22;5007622;28;102833;-78
2024/03/16 11:08:37;;;;;;;1.50;0.77;;;;;;;13.80;61.56;98850.66;4983659;28;103322;-79
2024/03/16 11:11:08;;;;;;;0.75;0.57;;;;;;;14.19;62.01;98839.63;5002506;28;103662;-80
2024/03/16 11:13:36;;;;;;;3.67;0.60;;;;;;;14.00;61.04;98843.72;4981170;27;102830;-80
2024/03/16 11:16:56;;;;;;;0.82;0.50;;;;;;;14.57;60.91;98846.59;4991483;28;102879;-80
2024/03/16 11:19:24;;;;;;;2.72;0.45;;;;;;;14.22;62.49;98835.78;4946407;28;108201;-80
2024/03/16 11:21:53;;;;;;;3.20;0.50;;;;;;;15.20;58.58;98837.91;4980984;27;108455;-86
2024/03/16 11:24:20;;;;;;;0.47;0.30;;;;;;;15.12;59.43;98846.88;4995939;27;102924;-75
2024/03/16 11:26:47;;;;;;;1.55;0.40;;;;;;;15.24;58.46;98845.31;5000209;27;103356;-74
2024/03/16 11:29:18;;;;;;;2.38;0.50;;;;;;;15.56;58.33;98852.91;4999410;27;103971;-74
2024/03/16 11:31:49;;;;;;;3.22;0.50;;;;;;;15.49;57.73;98846.72;5000856;27;103084;-74
2024/03/16 11:34:16;;;;;;;0.57;0.40;;;;;;;16.16;56.12;98842.50;5001977;27;102813;-74
2024/03/16 11:36:48;;;;;;;2.50;0.60;;;;;;;15.70;57.68;98833.25;4982098;27;102868;-75